sensor_id;sensor_type;location;lat;lon;timestamp;P1;durP1;ratioP1;P2;durP2;ratioP2
4096;SDS011;2062;50.694;7.246;2022-10-16T00:00:45;10.65;;;3.90;;
4096;SDS011;2062;50.694;7.246;2022-10-16T00:03:12;11.23;;;3.93;;
4096;SDS011;2062;50.694;7.246;2022-10-16T00:05:39;9.80;;;3.92;;
4096;SDS011;2062;50.694;7.246;2022-10-16T00:08:07;10.70;;;4.07;;
4096;SDS011;2062;50.694;7.246;2022-10-16T00:10:36;10.05;;;3.55;;
4096;SDS011;2062;50.694;7.246;2022-10-16T00:13:03;10.50;;;3.80;;
4096;SDS011;2062;50.694;7.246;2022-10-16T00:15:30;10.73;;;4.00;;
4096;SDS011;2062;50.694;7.246;2022-10-16T00:18:01;8.00;;;3.22;;
4096;SDS011;2062;50.694;7.246;2022-10-16T00:20:28;11.15;;;3.83;;
4096;SDS011;2062;50.694;7.246;2022-10-16T00:22:56;9.15;;;3.65;;
4096;SDS011;2062;50.694;7.246;2022-10-16T00:25:23;9.20;;;3.50;;
4096;SDS011;2062;50.694;7.246;2022-10-16T00:27:51;11.20;;;3.73;;
4096;SDS011;2062;50.694;7.246;2022-10-16T00:30:17;9.40;;;3.38;;
4096;SDS011;2062;50.694;7.246;2022-10-16T00:32:44;8.05;;;3.22;;
4096;SDS011;2062;50.694;7.246;2022-10-16T00:35:11;8.63;;;3.60;;
4096;SDS011;2062;50.694;7.246;2022-10-16T00:37:38;8.75;;;3.38;;
4096;SDS011;2062;50.694;7.246;2022-10-16T00:40:05;8.37;;;2.83;;
4096;SDS011;2062;50.694;7.246;2022-10-16T00:42:32;8.88;;;3.25;;
4096;SDS011;2062;50.694;7.246;2022-10-16T00:45:00;9.55;;;3.33;;
4096;SDS011;2062;50.694;7.246;2022-10-16T00:47:29;10.60;;;3.78;;
4096;SDS011;2062;50.694;7.246;2022-10-16T00:49:59;9.40;;;3.45;;
4096;SDS011;2062;50.694;7.246;2022-10-16T00:52:29;9.23;;;3.80;;
4096;SDS011;2062;50.694;7.246;2022-10-16T00:54:56;10.25;;;3.53;;
4096;SDS011;2062;50.694;7.246;2022-10-16T00:57:24;8.77;;;3.28;;
4096;SDS011;2062;50.694;7.246;2022-10-16T00:59:51;8.32;;;3.10;;
4096;SDS011;2062;50.694;7.246;2022-10-16T01:02:20;8.90;;;3.15;;
4096;SDS011;2062;50.694;7.246;2022-10-16T01:04:48;9.23;;;3.07;;
4096;SDS011;2062;50.694;7.246;2022-10-16T01:07:20;9.65;;;3.17;;
4096;SDS011;2062;50.694;7.246;2022-10-16T01:09:59;9.52;;;2.90;;
4096;SDS011;2062;50.694;7.246;2022-10-16T01:12:35;7.00;;;2.80;;
4096;SDS011;2062;50.694;7.246;2022-10-16T01:15:08;7.50;;;2.97;;
4096;SDS011;2062;50.694;7.246;2022-10-16T01:17:41;8.17;;;2.90;;
4096;SDS011;2062;50.694;7.246;2022-10-16T01:20:14;7.72;;;3.33;;
4096;SDS011;2062;50.694;7.246;2022-10-16T01:22:56;12.77;;;2.85;;
4096;SDS011;2062;50.694;7.246;2022-10-16T01:25:44;8.02;;;3.30;;
4096;SDS011;2062;50.694;7.246;2022-10-16T01:28:21;7.13;;;2.78;;
4096;SDS011;2062;50.694;7.246;2022-10-16T01:30:55;6.90;;;2.57;;
4096;SDS011;2062;50.694;7.246;2022-10-16T01:33:28;7.93;;;2.83;;
4096;SDS011;2062;50.694;7.246;2022-10-16T01:36:01;8.05;;;3.40;;
4096;SDS011;2062;50.694;7.246;2022-10-16T01:38:33;6.15;;;2.65;;
4096;SDS011;2062;50.694;7.246;2022-10-16T01:41:03;8.45;;;2.75;;
4096;SDS011;2062;50.694;7.246;2022-10-16T01:43:37;7.47;;;2.73;;
4096;SDS011;2062;50.694;7.246;2022-10-16T01:46:06;7.95;;;2.80;;
4096;SDS011;2062;50.694;7.246;2022-10-16T01:48:36;6.60;;;2.60;;
4096;SDS011;2062;50.694;7.246;2022-10-16T01:51:04;9.75;;;2.83;;
4096;SDS011;2062;50.694;7.246;2022-10-16T01:53:34;7.60;;;2.78;;
4096;SDS011;2062;50.694;7.246;2022-10-16T01:56:02;8.83;;;2.77;;
4096;SDS011;2062;50.694;7.246;2022-10-16T01:58:33;7.72;;;2.40;;
4096;SDS011;2062;50.694;7.246;2022-10-16T02:01:04;7.95;;;2.50;;
4096;SDS011;2062;50.694;7.246;2022-10-16T02:03:34;7.25;;;2.75;;
4096;SDS011;2062;50.694;7.246;2022-10-16T02:06:02;8.38;;;2.83;;
4096;SDS011;2062;50.694;7.246;2022-10-16T02:08:30;6.97;;;2.60;;
4096;SDS011;2062;50.694;7.246;2022-10-16T02:10:57;7.28;;;2.75;;
4096;SDS011;2062;50.694;7.246;2022-10-16T02:13:27;7.65;;;2.40;;
4096;SDS011;2062;50.694;7.246;2022-10-16T02:15:57;7.30;;;2.33;;
4096;SDS011;2062;50.694;7.246;2022-10-16T02:18:26;6.72;;;2.70;;
4096;SDS011;2062;50.694;7.246;2022-10-16T02:20:58;6.27;;;2.43;;
4096;SDS011;2062;50.694;7.246;2022-10-16T02:23:29;7.28;;;2.53;;
4096;SDS011;2062;50.694;7.246;2022-10-16T02:26:03;7.95;;;2.60;;
4096;SDS011;2062;50.694;7.246;2022-10-16T02:28:34;7.38;;;2.30;;
4096;SDS011;2062;50.694;7.246;2022-10-16T02:31:06;6.93;;;2.28;;
4096;SDS011;2062;50.694;7.246;2022-10-16T02:33:37;6.77;;;2.57;;
4096;SDS011;2062;50.694;7.246;2022-10-16T02:36:06;6.93;;;2.60;;
4096;SDS011;2062;50.694;7.246;2022-10-16T02:38:34;7.20;;;2.30;;
4096;SDS011;2062;50.694;7.246;2022-10-16T02:41:03;6.93;;;2.60;;
4096;SDS011;2062;50.694;7.246;2022-10-16T02:43:30;6.30;;;2.03;;
4096;SDS011;2062;50.694;7.246;2022-10-16T02:45:58;6.77;;;2.27;;
4096;SDS011;2062;50.694;7.246;2022-10-16T02:48:25;6.97;;;2.28;;
4096;SDS011;2062;50.694;7.246;2022-10-16T02:50:53;5.95;;;2.50;;
4096;SDS011;2062;50.694;7.246;2022-10-16T02:53:20;5.90;;;2.25;;
4096;SDS011;2062;50.694;7.246;2022-10-16T02:55:46;6.85;;;2.47;;
4096;SDS011;2062;50.694;7.246;2022-10-16T02:58:13;5.47;;;1.93;;
4096;SDS011;2062;50.694;7.246;2022-10-16T03:00:40;5.70;;;2.10;;
4096;SDS011;2062;50.694;7.246;2022-10-16T03:03:07;6.88;;;2.30;;
4096;SDS011;2062;50.694;7.246;2022-10-16T03:05:36;6.47;;;2.58;;
4096;SDS011;2062;50.694;7.246;2022-10-16T03:08:05;5.38;;;2.00;;
4096;SDS011;2062;50.694;7.246;2022-10-16T03:10:31;6.50;;;2.40;;
4096;SDS011;2062;50.694;7.246;2022-10-16T03:12:58;6.82;;;2.30;;
4096;SDS011;2062;50.694;7.246;2022-10-16T03:15:25;7.35;;;2.15;;
4096;SDS011;2062;50.694;7.246;2022-10-16T03:17:53;6.20;;;2.00;;
4096;SDS011;2062;50.694;7.246;2022-10-16T03:20:19;6.15;;;2.50;;
4096;SDS011;2062;50.694;7.246;2022-10-16T03:22:46;6.70;;;2.40;;
4096;SDS011;2062;50.694;7.246;2022-10-16T03:25:15;6.80;;;2.05;;
4096;SDS011;2062;50.694;7.246;2022-10-16T03:27:41;6.25;;;2.20;;
4096;SDS011;2062;50.694;7.246;2022-10-16T03:30:09;5.25;;;2.20;;
4096;SDS011;2062;50.694;7.246;2022-10-16T03:32:36;5.90;;;2.13;;
4096;SDS011;2062;50.694;7.246;2022-10-16T03:35:03;7.57;;;2.47;;
4096;SDS011;2062;50.694;7.246;2022-10-16T03:37:30;4.93;;;1.80;;
4096;SDS011;2062;50.694;7.246;2022-10-16T03:39:57;5.82;;;2.10;;
4096;SDS011;2062;50.694;7.246;2022-10-16T03:42:25;5.38;;;1.92;;
4096;SDS011;2062;50.694;7.246;2022-10-16T03:44:52;6.82;;;1.98;;
4096;SDS011;2062;50.694;7.246;2022-10-16T03:47:19;6.03;;;2.10;;
4096;SDS011;2062;50.694;7.246;2022-10-16T03:49:48;5.88;;;1.95;;
4096;SDS011;2062;50.694;7.246;2022-10-16T03:52:15;7.80;;;2.22;;
4096;SDS011;2062;50.694;7.246;2022-10-16T03:54:42;4.65;;;1.70;;
4096;SDS011;2062;50.694;7.246;2022-10-16T03:57:08;7.45;;;2.20;;
4096;SDS011;2062;50.694;7.246;2022-10-16T03:59:36;5.53;;;1.90;;
4096;SDS011;2062;50.694;7.246;2022-10-16T04:02:03;6.25;;;1.80;;
4096;SDS011;2062;50.694;7.246;2022-10-16T04:04:30;6.57;;;2.13;;
4096;SDS011;2062;50.694;7.246;2022-10-16T04:06:57;5.32;;;1.90;;
4096;SDS011;2062;50.694;7.246;2022-10-16T04:09:23;5.03;;;1.90;;
4096;SDS011;2062;50.694;7.246;2022-10-16T04:11:50;5.70;;;2.07;;
4096;SDS011;2062;50.694;7.246;2022-10-16T04:14:17;6.25;;;1.80;;
4096;SDS011;2062;50.694;7.246;2022-10-16T04:16:45;5.55;;;2.00;;
4096;SDS011;2062;50.694;7.246;2022-10-16T04:19:12;4.85;;;2.03;;
4096;SDS011;2062;50.694;7.246;2022-10-16T04:21:39;4.97;;;1.70;;
4096;SDS011;2062;50.694;7.246;2022-10-16T04:24:05;5.17;;;1.90;;
4096;SDS011;2062;50.694;7.246;2022-10-16T04:26:32;4.60;;;1.67;;
4096;SDS011;2062;50.694;7.246;2022-10-16T04:28:59;5.32;;;1.85;;
4096;SDS011;2062;50.694;7.246;2022-10-16T04:31:26;4.88;;;1.77;;
4096;SDS011;2062;50.694;7.246;2022-10-16T04:33:54;4.63;;;1.67;;
4096;SDS011;2062;50.694;7.246;2022-10-16T04:36:21;4.73;;;1.73;;
4096;SDS011;2062;50.694;7.246;2022-10-16T04:38:48;6.75;;;2.00;;
4096;SDS011;2062;50.694;7.246;2022-10-16T04:41:14;5.03;;;1.70;;
4096;SDS011;2062;50.694;7.246;2022-10-16T04:43:41;4.70;;;1.73;;
4096;SDS011;2062;50.694;7.246;2022-10-16T04:46:08;6.28;;;2.10;;
4096;SDS011;2062;50.694;7.246;2022-10-16T04:48:35;4.50;;;1.70;;
4096;SDS011;2062;50.694;7.246;2022-10-16T04:51:03;5.10;;;1.65;;
4096;SDS011;2062;50.694;7.246;2022-10-16T04:53:30;4.93;;;1.80;;
4096;SDS011;2062;50.694;7.246;2022-10-16T04:55:58;5.63;;;1.60;;
4096;SDS011;2062;50.694;7.246;2022-10-16T04:58:24;5.35;;;1.90;;
4096;SDS011;2062;50.694;7.246;2022-10-16T05:00:51;6.10;;;1.90;;
4096;SDS011;2062;50.694;7.246;2022-10-16T05:03:18;4.63;;;1.77;;
4096;SDS011;2062;50.694;7.246;2022-10-16T05:05:45;4.47;;;1.60;;
4096;SDS011;2062;50.694;7.246;2022-10-16T05:08:15;4.80;;;1.80;;
4096;SDS011;2062;50.694;7.246;2022-10-16T05:10:42;4.30;;;1.60;;
4096;SDS011;2062;50.694;7.246;2022-10-16T05:13:10;4.20;;;1.63;;
4096;SDS011;2062;50.694;7.246;2022-10-16T05:15:37;4.43;;;1.48;;
4096;SDS011;2062;50.694;7.246;2022-10-16T05:18:04;4.40;;;1.65;;
4096;SDS011;2062;50.694;7.246;2022-10-16T05:20:31;5.10;;;1.80;;
4096;SDS011;2062;50.694;7.246;2022-10-16T05:22:58;4.90;;;1.70;;
4096;SDS011;2062;50.694;7.246;2022-10-16T05:25:26;4.97;;;1.50;;
4096;SDS011;2062;50.694;7.246;2022-10-16T05:27:53;5.65;;;1.63;;
4096;SDS011;2062;50.694;7.246;2022-10-16T05:30:20;4.75;;;1.80;;
4096;SDS011;2062;50.694;7.246;2022-10-16T05:32:47;4.78;;;1.60;;
4096;SDS011;2062;50.694;7.246;2022-10-16T05:35:15;5.93;;;1.60;;
4096;SDS011;2062;50.694;7.246;2022-10-16T05:37:42;4.37;;;1.60;;
4096;SDS011;2062;50.694;7.246;2022-10-16T05:40:10;6.07;;;1.63;;
4096;SDS011;2062;50.694;7.246;2022-10-16T05:42:39;4.28;;;1.50;;
4096;SDS011;2062;50.694;7.246;2022-10-16T05:45:06;4.60;;;1.80;;
4096;SDS011;2062;50.694;7.246;2022-10-16T05:47:36;5.20;;;1.77;;
4096;SDS011;2062;50.694;7.246;2022-10-16T05:50:03;5.93;;;1.60;;
4096;SDS011;2062;50.694;7.246;2022-10-16T05:52:30;4.50;;;1.60;;
4096;SDS011;2062;50.694;7.246;2022-10-16T05:54:57;5.00;;;1.60;;
4096;SDS011;2062;50.694;7.246;2022-10-16T05:57:24;4.55;;;1.50;;
4096;SDS011;2062;50.694;7.246;2022-10-16T05:59:52;4.68;;;1.60;;
4096;SDS011;2062;50.694;7.246;2022-10-16T06:02:19;5.17;;;1.50;;
4096;SDS011;2062;50.694;7.246;2022-10-16T06:04:46;4.80;;;1.45;;
4096;SDS011;2062;50.694;7.246;2022-10-16T06:07:13;3.95;;;1.50;;
4096;SDS011;2062;50.694;7.246;2022-10-16T06:09:39;5.25;;;1.55;;
4096;SDS011;2062;50.694;7.246;2022-10-16T06:12:06;5.78;;;1.75;;
4096;SDS011;2062;50.694;7.246;2022-10-16T06:14:33;4.73;;;1.43;;
4096;SDS011;2062;50.694;7.246;2022-10-16T06:17:01;5.07;;;1.50;;
4096;SDS011;2062;50.694;7.246;2022-10-16T06:19:28;4.95;;;1.58;;
4096;SDS011;2062;50.694;7.246;2022-10-16T06:21:54;4.32;;;1.40;;
4096;SDS011;2062;50.694;7.246;2022-10-16T06:24:23;4.53;;;1.52;;
4096;SDS011;2062;50.694;7.246;2022-10-16T06:26:50;4.60;;;1.40;;
4096;SDS011;2062;50.694;7.246;2022-10-16T06:29:16;3.72;;;1.17;;
4096;SDS011;2062;50.694;7.246;2022-10-16T06:31:43;4.60;;;1.52;;
4096;SDS011;2062;50.694;7.246;2022-10-16T06:34:11;5.50;;;1.40;;
4096;SDS011;2062;50.694;7.246;2022-10-16T06:36:38;5.22;;;1.40;;
4096;SDS011;2062;50.694;7.246;2022-10-16T06:39:06;8.40;;;1.53;;
4096;SDS011;2062;50.694;7.246;2022-10-16T06:44:54;5.00;;;1.50;;
4096;SDS011;2062;50.694;7.246;2022-10-16T06:47:21;5.07;;;1.50;;
4096;SDS011;2062;50.694;7.246;2022-10-16T06:49:50;5.32;;;1.70;;
4096;SDS011;2062;50.694;7.246;2022-10-16T06:52:16;8.00;;;1.77;;
4096;SDS011;2062;50.694;7.246;2022-10-16T06:54:43;6.60;;;1.42;;
4096;SDS011;2062;50.694;7.246;2022-10-16T06:57:10;4.20;;;1.48;;
4096;SDS011;2062;50.694;7.246;2022-10-16T06:59:37;5.22;;;1.77;;
4096;SDS011;2062;50.694;7.246;2022-10-16T07:02:04;6.78;;;1.63;;
4096;SDS011;2062;50.694;7.246;2022-10-16T07:04:32;6.00;;;1.30;;
4096;SDS011;2062;50.694;7.246;2022-10-16T07:07:01;4.78;;;1.48;;
4096;SDS011;2062;50.694;7.246;2022-10-16T07:09:28;5.45;;;1.52;;
4096;SDS011;2062;50.694;7.246;2022-10-16T07:11:55;3.92;;;1.30;;
4096;SDS011;2062;50.694;7.246;2022-10-16T07:14:22;6.15;;;1.52;;
4096;SDS011;2062;50.694;7.246;2022-10-16T07:16:48;5.13;;;1.57;;
4096;SDS011;2062;50.694;7.246;2022-10-16T07:19:15;5.07;;;1.40;;
4096;SDS011;2062;50.694;7.246;2022-10-16T07:21:43;4.32;;;1.55;;
4096;SDS011;2062;50.694;7.246;2022-10-16T07:24:13;7.80;;;1.60;;
4096;SDS011;2062;50.694;7.246;2022-10-16T07:26:41;4.10;;;1.40;;
4096;SDS011;2062;50.694;7.246;2022-10-16T07:29:11;4.73;;;1.40;;
4096;SDS011;2062;50.694;7.246;2022-10-16T07:31:39;5.60;;;1.45;;
4096;SDS011;2062;50.694;7.246;2022-10-16T07:34:06;6.75;;;1.42;;
4096;SDS011;2062;50.694;7.246;2022-10-16T07:36:33;5.32;;;1.45;;
4096;SDS011;2062;50.694;7.246;2022-10-16T07:39:00;5.80;;;1.60;;
4096;SDS011;2062;50.694;7.246;2022-10-16T07:41:28;6.40;;;1.57;;
4096;SDS011;2062;50.694;7.246;2022-10-16T07:43:58;7.15;;;1.52;;
4096;SDS011;2062;50.694;7.246;2022-10-16T07:46:26;4.28;;;1.40;;
4096;SDS011;2062;50.694;7.246;2022-10-16T07:48:53;6.97;;;1.40;;
4096;SDS011;2062;50.694;7.246;2022-10-16T07:51:21;5.35;;;1.42;;
4096;SDS011;2062;50.694;7.246;2022-10-16T07:53:48;5.17;;;1.50;;
4096;SDS011;2062;50.694;7.246;2022-10-16T07:56:16;5.18;;;1.45;;
4096;SDS011;2062;50.694;7.246;2022-10-16T07:58:45;4.90;;;1.50;;
4096;SDS011;2062;50.694;7.246;2022-10-16T08:01:15;5.05;;;1.65;;
4096;SDS011;2062;50.694;7.246;2022-10-16T08:03:43;8.20;;;2.60;;
4096;SDS011;2062;50.694;7.246;2022-10-16T08:06:11;12.50;;;4.10;;
4096;SDS011;2062;50.694;7.246;2022-10-16T08:08:37;10.75;;;3.80;;
4096;SDS011;2062;50.694;7.246;2022-10-16T08:11:04;12.00;;;4.57;;
4096;SDS011;2062;50.694;7.246;2022-10-16T08:13:31;13.20;;;4.55;;
4096;SDS011;2062;50.694;7.246;2022-10-16T08:16:00;14.70;;;5.22;;
4096;SDS011;2062;50.694;7.246;2022-10-16T08:18:28;18.03;;;5.50;;
4096;SDS011;2062;50.694;7.246;2022-10-16T08:20:56;15.02;;;5.68;;
4096;SDS011;2062;50.694;7.246;2022-10-16T08:23:23;15.35;;;5.63;;
4096;SDS011;2062;50.694;7.246;2022-10-16T08:25:51;15.85;;;6.07;;
4096;SDS011;2062;50.694;7.246;2022-10-16T08:28:18;20.63;;;6.93;;
4096;SDS011;2062;50.694;7.246;2022-10-16T08:30:46;26.90;;;6.30;;
4096;SDS011;2062;50.694;7.246;2022-10-16T08:33:14;19.40;;;6.30;;
4096;SDS011;2062;50.694;7.246;2022-10-16T08:35:41;18.00;;;5.63;;
4096;SDS011;2062;50.694;7.246;2022-10-16T08:38:08;12.65;;;4.82;;
4096;SDS011;2062;50.694;7.246;2022-10-16T08:40:35;10.82;;;3.70;;
4096;SDS011;2062;50.694;7.246;2022-10-16T08:43:11;10.30;;;3.97;;
4096;SDS011;2062;50.694;7.246;2022-10-16T08:46:04;9.50;;;4.50;;
4096;SDS011;2062;50.694;7.246;2022-10-16T08:48:43;13.48;;;5.00;;
4096;SDS011;2062;50.694;7.246;2022-10-16T08:51:15;12.77;;;5.05;;
4096;SDS011;2062;50.694;7.246;2022-10-16T08:53:49;12.70;;;4.93;;
4096;SDS011;2062;50.694;7.246;2022-10-16T08:56:20;11.93;;;4.30;;
4096;SDS011;2062;50.694;7.246;2022-10-16T08:58:47;11.00;;;4.10;;
4096;SDS011;2062;50.694;7.246;2022-10-16T09:01:16;14.23;;;4.47;;
4096;SDS011;2062;50.694;7.246;2022-10-16T09:03:52;9.77;;;3.45;;
4096;SDS011;2062;50.694;7.246;2022-10-16T09:06:37;13.05;;;4.28;;
4096;SDS011;2062;50.694;7.246;2022-10-16T09:09:14;8.93;;;3.90;;
4096;SDS011;2062;50.694;7.246;2022-10-16T09:12:04;11.82;;;4.05;;
4096;SDS011;2062;50.694;7.246;2022-10-16T09:14:47;9.93;;;4.00;;
4096;SDS011;2062;50.694;7.246;2022-10-16T09:17:29;10.40;;;3.65;;
4096;SDS011;2062;50.694;7.246;2022-10-16T09:20:09;9.80;;;3.72;;
4096;SDS011;2062;50.694;7.246;2022-10-16T09:22:44;10.13;;;3.53;;
4096;SDS011;2062;50.694;7.246;2022-10-16T09:25:12;8.13;;;3.22;;
4096;SDS011;2062;50.694;7.246;2022-10-16T09:27:41;13.95;;;2.67;;
4096;SDS011;2062;50.694;7.246;2022-10-16T09:30:11;11.07;;;3.75;;
4096;SDS011;2062;50.694;7.246;2022-10-16T09:32:39;7.97;;;3.13;;
4096;SDS011;2062;50.694;7.246;2022-10-16T09:35:12;9.13;;;3.07;;
4096;SDS011;2062;50.694;7.246;2022-10-16T09:37:42;9.73;;;3.25;;
4096;SDS011;2062;50.694;7.246;2022-10-16T09:40:13;10.13;;;3.60;;
4096;SDS011;2062;50.694;7.246;2022-10-16T09:42:51;7.72;;;2.72;;
4096;SDS011;2062;50.694;7.246;2022-10-16T09:45:22;9.35;;;3.45;;
4096;SDS011;2062;50.694;7.246;2022-10-16T09:47:50;8.60;;;2.90;;
4096;SDS011;2062;50.694;7.246;2022-10-16T09:50:23;7.78;;;2.95;;
4096;SDS011;2062;50.694;7.246;2022-10-16T09:53:02;8.05;;;3.08;;
4096;SDS011;2062;50.694;7.246;2022-10-16T09:55:30;9.23;;;2.95;;
4096;SDS011;2062;50.694;7.246;2022-10-16T09:57:57;10.13;;;3.38;;
4096;SDS011;2062;50.694;7.246;2022-10-16T10:00:24;8.47;;;3.03;;
4096;SDS011;2062;50.694;7.246;2022-10-16T10:02:51;7.75;;;2.78;;
4096;SDS011;2062;50.694;7.246;2022-10-16T10:05:22;8.98;;;2.92;;
4096;SDS011;2062;50.694;7.246;2022-10-16T10:07:54;9.05;;;3.00;;
4096;SDS011;2062;50.694;7.246;2022-10-16T10:10:24;7.75;;;2.50;;
4096;SDS011;2062;50.694;7.246;2022-10-16T10:12:52;8.60;;;2.70;;
4096;SDS011;2062;50.694;7.246;2022-10-16T10:15:19;8.00;;;2.80;;
4096;SDS011;2062;50.694;7.246;2022-10-16T10:17:49;8.05;;;2.80;;
4096;SDS011;2062;50.694;7.246;2022-10-16T10:20:26;8.38;;;2.50;;
4096;SDS011;2062;50.694;7.246;2022-10-16T10:22:54;6.43;;;2.70;;
4096;SDS011;2062;50.694;7.246;2022-10-16T10:25:24;6.80;;;2.37;;
4096;SDS011;2062;50.694;7.246;2022-10-16T10:31:09;7.32;;;2.42;;
4096;SDS011;2062;50.694;7.246;2022-10-16T10:33:41;9.88;;;2.25;;
4096;SDS011;2062;50.694;7.246;2022-10-16T10:36:19;7.97;;;2.20;;
4096;SDS011;2062;50.694;7.246;2022-10-16T10:38:54;6.80;;;2.13;;
4096;SDS011;2062;50.694;7.246;2022-10-16T10:44:29;7.55;;;2.28;;
4096;SDS011;2062;50.694;7.246;2022-10-16T10:47:18;8.93;;;2.30;;
4096;SDS011;2062;50.694;7.246;2022-10-16T10:50:03;9.55;;;2.17;;
4096;SDS011;2062;50.694;7.246;2022-10-16T10:52:41;8.37;;;2.60;;
4096;SDS011;2062;50.694;7.246;2022-10-16T10:55:19;9.20;;;2.53;;
4096;SDS011;2062;50.694;7.246;2022-10-16T10:57:57;7.22;;;2.33;;
4096;SDS011;2062;50.694;7.246;2022-10-16T11:00:48;7.13;;;1.92;;
4096;SDS011;2062;50.694;7.246;2022-10-16T11:03:27;13.65;;;2.25;;
4096;SDS011;2062;50.694;7.246;2022-10-16T11:06:03;9.00;;;2.40;;
4096;SDS011;2062;50.694;7.246;2022-10-16T11:08:35;11.52;;;2.10;;
4096;SDS011;2062;50.694;7.246;2022-10-16T11:11:06;5.68;;;2.00;;
4096;SDS011;2062;50.694;7.246;2022-10-16T11:13:42;8.10;;;2.20;;
4096;SDS011;2062;50.694;7.246;2022-10-16T11:16:17;8.60;;;1.85;;
4096;SDS011;2062;50.694;7.246;2022-10-16T11:18:51;19.50;;;2.13;;
4096;SDS011;2062;50.694;7.246;2022-10-16T11:21:23;6.32;;;2.00;;
4096;SDS011;2062;50.694;7.246;2022-10-16T11:23:53;8.15;;;1.95;;
4096;SDS011;2062;50.694;7.246;2022-10-16T11:26:23;7.82;;;1.90;;
4096;SDS011;2062;50.694;7.246;2022-10-16T11:28:53;7.22;;;1.83;;
4096;SDS011;2062;50.694;7.246;2022-10-16T11:31:24;10.40;;;2.07;;
4096;SDS011;2062;50.694;7.246;2022-10-16T11:34:00;6.05;;;1.90;;
4096;SDS011;2062;50.694;7.246;2022-10-16T11:36:32;6.05;;;1.92;;
4096;SDS011;2062;50.694;7.246;2022-10-16T11:39:07;5.63;;;1.98;;
4096;SDS011;2062;50.694;7.246;2022-10-16T11:41:44;6.53;;;2.13;;
4096;SDS011;2062;50.694;7.246;2022-10-16T11:44:17;7.00;;;1.60;;
4096;SDS011;2062;50.694;7.246;2022-10-16T11:47:01;9.02;;;1.88;;
4096;SDS011;2062;50.694;7.246;2022-10-16T11:49:37;8.45;;;2.75;;
4096;SDS011;2062;50.694;7.246;2022-10-16T11:52:07;7.88;;;1.80;;
4096;SDS011;2062;50.694;7.246;2022-10-16T11:54:44;5.55;;;1.92;;
4096;SDS011;2062;50.694;7.246;2022-10-16T11:57:16;6.93;;;2.00;;
4096;SDS011;2062;50.694;7.246;2022-10-16T11:59:47;6.78;;;1.95;;
4096;SDS011;2062;50.694;7.246;2022-10-16T12:02:30;7.07;;;1.73;;
4096;SDS011;2062;50.694;7.246;2022-10-16T12:05:06;7.68;;;1.80;;
4096;SDS011;2062;50.694;7.246;2022-10-16T12:07:43;5.75;;;1.70;;
4096;SDS011;2062;50.694;7.246;2022-10-16T12:10:23;6.20;;;1.97;;
4096;SDS011;2062;50.694;7.246;2022-10-16T12:12:52;6.72;;;1.70;;
4096;SDS011;2062;50.694;7.246;2022-10-16T12:15:20;5.65;;;1.63;;
4096;SDS011;2062;50.694;7.246;2022-10-16T12:17:50;5.72;;;1.55;;
4096;SDS011;2062;50.694;7.246;2022-10-16T12:20:20;9.23;;;1.90;;
4096;SDS011;2062;50.694;7.246;2022-10-16T12:22:49;7.60;;;1.90;;
4096;SDS011;2062;50.694;7.246;2022-10-16T12:25:25;7.22;;;1.77;;
4096;SDS011;2062;50.694;7.246;2022-10-16T12:27:59;4.57;;;1.70;;
4096;SDS011;2062;50.694;7.246;2022-10-16T12:30:28;7.65;;;1.75;;
4096;SDS011;2062;50.694;7.246;2022-10-16T12:32:57;4.60;;;1.52;;
4096;SDS011;2062;50.694;7.246;2022-10-16T12:35:28;8.43;;;1.60;;
4096;SDS011;2062;50.694;7.246;2022-10-16T12:38:07;5.70;;;1.40;;
4096;SDS011;2062;50.694;7.246;2022-10-16T12:40:42;9.80;;;1.60;;
4096;SDS011;2062;50.694;7.246;2022-10-16T12:43:11;4.60;;;1.38;;
4096;SDS011;2062;50.694;7.246;2022-10-16T12:45:58;5.13;;;1.55;;
4096;SDS011;2062;50.694;7.246;2022-10-16T12:48:26;3.90;;;1.40;;
4096;SDS011;2062;50.694;7.246;2022-10-16T12:50:54;6.88;;;1.38;;
4096;SDS011;2062;50.694;7.246;2022-10-16T12:53:21;5.03;;;1.55;;
4096;SDS011;2062;50.694;7.246;2022-10-16T12:55:54;6.05;;;1.38;;
4096;SDS011;2062;50.694;7.246;2022-10-16T12:58:38;4.65;;;1.30;;
4096;SDS011;2062;50.694;7.246;2022-10-16T13:01:31;9.37;;;1.40;;
4096;SDS011;2062;50.694;7.246;2022-10-16T13:04:18;4.13;;;1.40;;
4096;SDS011;2062;50.694;7.246;2022-10-16T13:07:00;4.07;;;1.30;;
4096;SDS011;2062;50.694;7.246;2022-10-16T13:09:41;5.05;;;1.27;;
4096;SDS011;2062;50.694;7.246;2022-10-16T13:12:28;6.03;;;1.58;;
4096;SDS011;2062;50.694;7.246;2022-10-16T13:15:19;5.60;;;1.10;;
4096;SDS011;2062;50.694;7.246;2022-10-16T13:17:56;4.60;;;1.23;;
4096;SDS011;2062;50.694;7.246;2022-10-16T13:20:31;4.07;;;1.30;;
4096;SDS011;2062;50.694;7.246;2022-10-16T13:23:19;4.15;;;1.35;;
4096;SDS011;2062;50.694;7.246;2022-10-16T13:25:55;4.88;;;1.27;;
4096;SDS011;2062;50.694;7.246;2022-10-16T13:28:32;4.40;;;1.30;;
4096;SDS011;2062;50.694;7.246;2022-10-16T13:31:00;4.97;;;1.30;;
4096;SDS011;2062;50.694;7.246;2022-10-16T13:33:30;3.80;;;1.23;;
4096;SDS011;2062;50.694;7.246;2022-10-16T13:35:59;3.42;;;0.98;;
4096;SDS011;2062;50.694;7.246;2022-10-16T13:38:27;4.38;;;1.20;;
4096;SDS011;2062;50.694;7.246;2022-10-16T13:40:57;3.40;;;1.20;;
4096;SDS011;2062;50.694;7.246;2022-10-16T13:43:27;2.90;;;1.02;;
4096;SDS011;2062;50.694;7.246;2022-10-16T13:45:57;4.80;;;1.30;;
4096;SDS011;2062;50.694;7.246;2022-10-16T13:48:26;3.28;;;1.20;;
4096;SDS011;2062;50.694;7.246;2022-10-16T13:51:01;3.40;;;1.10;;
4096;SDS011;2062;50.694;7.246;2022-10-16T13:53:30;5.13;;;1.20;;
4096;SDS011;2062;50.694;7.246;2022-10-16T13:55:58;4.45;;;1.08;;
4096;SDS011;2062;50.694;7.246;2022-10-16T13:58:26;4.30;;;1.25;;
4096;SDS011;2062;50.694;7.246;2022-10-16T14:00:54;3.60;;;1.20;;
4096;SDS011;2062;50.694;7.246;2022-10-16T14:03:24;3.88;;;1.00;;
4096;SDS011;2062;50.694;7.246;2022-10-16T14:05:53;3.90;;;1.13;;
4096;SDS011;2062;50.694;7.246;2022-10-16T14:08:21;3.75;;;1.10;;
4096;SDS011;2062;50.694;7.246;2022-10-16T14:10:50;3.88;;;1.15;;
4096;SDS011;2062;50.694;7.246;2022-10-16T14:13:19;3.78;;;1.23;;
4096;SDS011;2062;50.694;7.246;2022-10-16T14:15:50;4.13;;;1.30;;
4096;SDS011;2062;50.694;7.246;2022-10-16T14:18:21;4.63;;;1.00;;
4096;SDS011;2062;50.694;7.246;2022-10-16T14:20:50;5.13;;;1.20;;
4096;SDS011;2062;50.694;7.246;2022-10-16T14:23:21;4.85;;;1.13;;
4096;SDS011;2062;50.694;7.246;2022-10-16T14:25:51;3.90;;;1.05;;
4096;SDS011;2062;50.694;7.246;2022-10-16T14:28:18;3.30;;;1.02;;
4096;SDS011;2062;50.694;7.246;2022-10-16T14:30:50;3.20;;;0.80;;
4096;SDS011;2062;50.694;7.246;2022-10-16T14:33:24;5.57;;;1.00;;
4096;SDS011;2062;50.694;7.246;2022-10-16T14:35:59;9.95;;;1.33;;
4096;SDS011;2062;50.694;7.246;2022-10-16T14:38:31;12.73;;;1.50;;
4096;SDS011;2062;50.694;7.246;2022-10-16T14:40:59;5.28;;;1.20;;
4096;SDS011;2062;50.694;7.246;2022-10-16T14:43:29;6.50;;;1.33;;
4096;SDS011;2062;50.694;7.246;2022-10-16T14:45:59;12.60;;;1.35;;
4096;SDS011;2062;50.694;7.246;2022-10-16T14:48:30;15.43;;;1.65;;
4096;SDS011;2062;50.694;7.246;2022-10-16T14:50:58;6.40;;;1.20;;
4096;SDS011;2062;50.694;7.246;2022-10-16T14:53:25;7.93;;;1.20;;
4096;SDS011;2062;50.694;7.246;2022-10-16T14:55:52;7.23;;;1.10;;
4096;SDS011;2062;50.694;7.246;2022-10-16T14:58:19;10.25;;;1.77;;
4096;SDS011;2062;50.694;7.246;2022-10-16T15:00:48;6.63;;;1.20;;
4096;SDS011;2062;50.694;7.246;2022-10-16T15:03:15;6.28;;;1.08;;
4096;SDS011;2062;50.694;7.246;2022-10-16T15:05:43;11.82;;;1.30;;
4096;SDS011;2062;50.694;7.246;2022-10-16T15:08:10;5.50;;;1.00;;
4096;SDS011;2062;50.694;7.246;2022-10-16T15:10:39;4.15;;;1.02;;
4096;SDS011;2062;50.694;7.246;2022-10-16T15:13:09;6.63;;;1.00;;
4096;SDS011;2062;50.694;7.246;2022-10-16T15:15:40;3.85;;;1.20;;
4096;SDS011;2062;50.694;7.246;2022-10-16T15:18:09;4.90;;;1.30;;
4096;SDS011;2062;50.694;7.246;2022-10-16T15:20:37;6.07;;;1.10;;
4096;SDS011;2062;50.694;7.246;2022-10-16T15:23:10;8.18;;;1.38;;
4096;SDS011;2062;50.694;7.246;2022-10-16T15:25:41;11.00;;;1.33;;
4096;SDS011;2062;50.694;7.246;2022-10-16T15:28:10;5.22;;;1.02;;
4096;SDS011;2062;50.694;7.246;2022-10-16T15:30:38;4.75;;;1.20;;
4096;SDS011;2062;50.694;7.246;2022-10-16T15:33:05;10.07;;;1.27;;
4096;SDS011;2062;50.694;7.246;2022-10-16T15:35:38;4.85;;;1.05;;
4096;SDS011;2062;50.694;7.246;2022-10-16T15:38:06;7.93;;;1.52;;
4096;SDS011;2062;50.694;7.246;2022-10-16T15:40:37;7.90;;;1.38;;